sensor_id;sensor_type;location;lat;lon;timestamp;pressure;altitude;pressure_sealevel;temperature;humidity
48888;BME280;42598;53.802;-1.632;2023-02-18T00:00:30;100742.73;;;9.89;94.04
48888;BME280;42598;53.802;-1.632;2023-02-18T00:02:57;100738.69;;;9.65;100.00
48888;BME280;42598;53.802;-1.632;2023-02-18T00:05:24;100741.57;;;10.85;99.67
48888;BME280;42598;53.802;-1.632;2023-02-18T00:07:51;100749.80;;;9.50;100.00
48888;BME280;42598;53.802;-1.632;2023-02-18T00:10:19;100737.87;;;9.25;100.00
48888;BME280;42598;53.802;-1.632;2023-02-18T00:12:46;100735.64;;;9.19;100.00
48888;BME280;42598;53.802;-1.632;2023-02-18T00:15:14;100725.23;;;8.88;100.00
48888;BME280;42598;53.802;-1.632;2023-02-18T00:17:41;100724.37;;;8.85;100.00
48888;BME280;42598;53.802;-1.632;2023-02-18T00:20:08;100718.43;;;9.40;100.00
48888;BME280;42598;53.802;-1.632;2023-02-18T00:22:35;100718.78;;;9.36;100.00
48888;BME280;42598;53.802;-1.632;2023-02-18T00:25:10;100721.44;;;9.09;100.00
48888;BME280;42598;53.802;-1.632;2023-02-18T00:27:37;100712.31;;;8.74;100.00
48888;BME280;42598;53.802;-1.632;2023-02-18T00:30:05;100708.92;;;9.26;100.00
48888;BME280;42598;53.802;-1.632;2023-02-18T00:32:33;100701.12;;;8.56;100.00
48888;BME280;42598;53.802;-1.632;2023-02-18T00:35:00;100683.57;;;8.63;100.00
48888;BME280;42598;53.802;-1.632;2023-02-18T00:37:27;100676.50;;;8.73;100.00
48888;BME280;42598;53.802;-1.632;2023-02-18T00:39:54;100668.76;;;8.46;100.00
48888;BME280;42598;53.802;-1.632;2023-02-18T00:42:21;100663.76;;;8.78;100.00
48888;BME280;42598;53.802;-1.632;2023-02-18T00:44:48;100672.73;;;8.75;100.00
48888;BME280;42598;53.802;-1.632;2023-02-18T00:47:15;100686.19;;;9.40;100.00
48888;BME280;42598;53.802;-1.632;2023-02-18T00:49:42;100681.35;;;8.92;100.00
48888;BME280;42598;53.802;-1.632;2023-02-18T00:52:08;100686.07;;;9.26;100.00
48888;BME280;42598;53.802;-1.632;2023-02-18T00:54:35;100679.81;;;8.71;100.00
48888;BME280;42598;53.802;-1.632;2023-02-18T00:57:02;100672.11;;;8.43;100.00
48888;BME280;42598;53.802;-1.632;2023-02-18T00:59:29;100666.50;;;7.97;100.00
48888;BME280;42598;53.802;-1.632;2023-02-18T01:01:56;100650.14;;;8.49;100.00
48888;BME280;42598;53.802;-1.632;2023-02-18T01:04:28;100644.40;;;8.29;100.00
48888;BME280;42598;53.802;-1.632;2023-02-18T01:06:55;100636.81;;;8.25;100.00
48888;BME280;42598;53.802;-1.632;2023-02-18T01:09:22;100620.53;;;8.71;100.00
48888;BME280;42598;53.802;-1.632;2023-02-18T01:11:48;100612.07;;;7.83;100.00
48888;BME280;42598;53.802;-1.632;2023-02-18T01:14:16;100603.70;;;7.76;100.00
48888;BME280;42598;53.802;-1.632;2023-02-18T01:16:43;100581.78;;;8.43;100.00
48888;BME280;42598;53.802;-1.632;2023-02-18T01:19:10;100565.42;;;8.30;100.00
48888;BME280;42598;53.802;-1.632;2023-02-18T01:21:37;100579.26;;;8.48;100.00
48888;BME280;42598;53.802;-1.632;2023-02-18T01:24:05;100592.64;;;8.55;100.00
48888;BME280;42598;53.802;-1.632;2023-02-18T01:26:32;100604.86;;;7.84;100.00
48888;BME280;42598;53.802;-1.632;2023-02-18T01:28:59;100604.95;;;8.56;100.00
48888;BME280;42598;53.802;-1.632;2023-02-18T01:31:26;100591.24;;;8.39;100.00
48888;BME280;42598;53.802;-1.632;2023-02-18T01:33:53;100568.09;;;8.16;100.00
48888;BME280;42598;53.802;-1.632;2023-02-18T01:36:20;100580.13;;;8.40;100.00
48888;BME280;42598;53.802;-1.632;2023-02-18T01:38:47;100574.56;;;8.28;100.00
48888;BME280;42598;53.802;-1.632;2023-02-18T01:41:15;100570.47;;;7.76;100.00
48888;BME280;42598;53.802;-1.632;2023-02-18T01:43:42;100567.01;;;7.70;100.00
48888;BME280;42598;53.802;-1.632;2023-02-18T01:46:13;100558.44;;;7.90;100.00
48888;BME280;42598;53.802;-1.632;2023-02-18T01:48:43;100550.95;;;7.81;100.00
48888;BME280;42598;53.802;-1.632;2023-02-18T01:51:15;100543.93;;;7.86;100.00
48888;BME280;42598;53.802;-1.632;2023-02-18T01:53:48;100539.14;;;8.12;100.00
48888;BME280;42598;53.802;-1.632;2023-02-18T01:56:22;100529.30;;;8.08;100.00
48888;BME280;42598;53.802;-1.632;2023-02-18T01:58:52;100533.68;;;7.43;100.00
48888;BME280;42598;53.802;-1.632;2023-02-18T02:01:20;100534.07;;;7.31;100.00
48888;BME280;42598;53.802;-1.632;2023-02-18T02:03:48;100523.96;;;7.60;100.00
48888;BME280;42598;53.802;-1.632;2023-02-18T02:06:19;100513.67;;;7.48;100.00
48888;BME280;42598;53.802;-1.632;2023-02-18T02:08:50;100519.61;;;7.76;100.00
48888;BME280;42598;53.802;-1.632;2023-02-18T02:11:25;100501.35;;;7.41;100.00
48888;BME280;42598;53.802;-1.632;2023-02-18T02:14:09;100501.75;;;7.54;100.00
48888;BME280;42598;53.802;-1.632;2023-02-18T02:16:44;100501.22;;;7.46;100.00
48888;BME280;42598;53.802;-1.632;2023-02-18T02:19:36;100486.77;;;7.27;100.00
48888;BME280;42598;53.802;-1.632;2023-02-18T02:22:20;100479.33;;;7.18;100.00
48888;BME280;42598;53.802;-1.632;2023-02-18T02:25:16;100480.15;;;7.15;100.00
48888;BME280;42598;53.802;-1.632;2023-02-18T02:28:00;100471.71;;;7.03;100.00
48888;BME280;42598;53.802;-1.632;2023-02-18T02:30:58;100464.03;;;7.30;100.00
48888;BME280;42598;53.802;-1.632;2023-02-18T02:34:41;100460.22;;;6.88;100.00
48888;BME280;42598;53.802;-1.632;2023-02-18T02:37:16;100446.51;;;7.02;100.00
48888;BME280;42598;53.802;-1.632;2023-02-18T02:39:53;100454.93;;;7.30;100.00
48888;BME280;42598;53.802;-1.632;2023-02-18T02:42:31;100449.58;;;6.95;100.00
48888;BME280;42598;53.802;-1.632;2023-02-18T02:45:11;100447.31;;;7.49;100.00
48888;BME280;42598;53.802;-1.632;2023-02-18T02:47:50;100446.03;;;6.89;100.00
48888;BME280;42598;53.802;-1.632;2023-02-18T02:50:27;100450.03;;;6.81;100.00
48888;BME280;42598;53.802;-1.632;2023-02-18T02:52:59;100441.10;;;7.29;100.00
48888;BME280;42598;53.802;-1.632;2023-02-18T02:55:28;100443.25;;;6.89;100.00
48888;BME280;42598;53.802;-1.632;2023-02-18T02:57:55;100434.70;;;6.88;100.00
48888;BME280;42598;53.802;-1.632;2023-02-18T03:00:30;100450.42;;;7.41;100.00
48888;BME280;42598;53.802;-1.632;2023-02-18T03:03:12;100421.69;;;6.75;100.00
48888;BME280;42598;53.802;-1.632;2023-02-18T03:05:54;100430.04;;;6.55;100.00
48888;BME280;42598;53.802;-1.632;2023-02-18T03:08:36;100417.71;;;6.73;100.00
48888;BME280;42598;53.802;-1.632;2023-02-18T03:11:08;100411.05;;;6.94;100.00
48888;BME280;42598;53.802;-1.632;2023-02-18T03:13:48;100408.80;;;6.68;100.00
48888;BME280;42598;53.802;-1.632;2023-02-18T03:16:25;100395.08;;;6.84;100.00
48888;BME280;42598;53.802;-1.632;2023-02-18T03:19:00;100402.07;;;7.06;100.00
48888;BME280;42598;53.802;-1.632;2023-02-18T03:21:30;100386.80;;;6.61;100.00
48888;BME280;42598;53.802;-1.632;2023-02-18T03:24:02;100386.95;;;7.22;100.00
48888;BME280;42598;53.802;-1.632;2023-02-18T03:26:35;100378.87;;;7.27;100.00
48888;BME280;42598;53.802;-1.632;2023-02-18T03:29:06;100372.07;;;6.90;100.00
48888;BME280;42598;53.802;-1.632;2023-02-18T03:31:37;100376.49;;;6.68;100.00
48888;BME280;42598;53.802;-1.632;2023-02-18T03:34:10;100376.58;;;6.78;100.00
48888;BME280;42598;53.802;-1.632;2023-02-18T03:36:39;100387.35;;;6.71;100.00
48888;BME280;42598;53.802;-1.632;2023-02-18T03:39:09;100382.53;;;6.94;100.00
48888;BME280;42598;53.802;-1.632;2023-02-18T03:41:37;100388.38;;;6.65;100.00
48888;BME280;42598;53.802;-1.632;2023-02-18T03:44:07;100378.94;;;6.57;100.00
48888;BME280;42598;53.802;-1.632;2023-02-18T03:46:35;100377.60;;;6.51;100.00
48888;BME280;42598;53.802;-1.632;2023-02-18T03:49:03;100376.41;;;6.88;100.00
48888;BME280;42598;53.802;-1.632;2023-02-18T03:51:31;100380.13;;;6.52;100.00
48888;BME280;42598;53.802;-1.632;2023-02-18T03:53:58;100365.96;;;6.81;100.00
48888;BME280;42598;53.802;-1.632;2023-02-18T03:56:25;100367.03;;;6.61;100.00
48888;BME280;42598;53.802;-1.632;2023-02-18T03:58:51;100362.30;;;6.67;100.00
48888;BME280;42598;53.802;-1.632;2023-02-18T04:01:19;100384.90;;;6.47;100.00
48888;BME280;42598;53.802;-1.632;2023-02-18T04:03:47;100370.25;;;6.66;100.00
48888;BME280;42598;53.802;-1.632;2023-02-18T04:06:14;100371.69;;;6.29;100.00
48888;BME280;42598;53.802;-1.632;2023-02-18T04:08:41;100389.93;;;6.66;100.00
48888;BME280;42598;53.802;-1.632;2023-02-18T04:11:09;100386.61;;;6.54;100.00
48888;BME280;42598;53.802;-1.632;2023-02-18T04:13:36;100380.91;;;6.84;100.00
48888;BME280;42598;53.802;-1.632;2023-02-18T04:16:03;100370.00;;;6.62;100.00
48888;BME280;42598;53.802;-1.632;2023-02-18T04:18:30;100377.72;;;6.74;100.00
48888;BME280;42598;53.802;-1.632;2023-02-18T04:20:57;100378.12;;;7.03;100.00
48888;BME280;42598;53.802;-1.632;2023-02-18T04:23:23;100375.89;;;7.18;100.00
48888;BME280;42598;53.802;-1.632;2023-02-18T04:25:50;100377.21;;;6.76;100.00
48888;BME280;42598;53.802;-1.632;2023-02-18T04:28:17;100401.24;;;6.81;100.00
48888;BME280;42598;53.802;-1.632;2023-02-18T04:30:46;100393.41;;;6.59;100.00
48888;BME280;42598;53.802;-1.632;2023-02-18T04:33:13;100389.26;;;6.82;100.00
48888;BME280;42598;53.802;-1.632;2023-02-18T04:35:41;100389.82;;;7.08;100.00
48888;BME280;42598;53.802;-1.632;2023-02-18T04:38:09;100395.06;;;6.93;100.00
48888;BME280;42598;53.802;-1.632;2023-02-18T04:40:36;100385.41;;;7.11;100.00
48888;BME280;42598;53.802;-1.632;2023-02-18T04:43:03;100389.28;;;6.76;100.00
48888;BME280;42598;53.802;-1.632;2023-02-18T04:45:30;100379.25;;;7.15;100.00
48888;BME280;42598;53.802;-1.632;2023-02-18T04:47:58;100384.16;;;7.61;100.00
48888;BME280;42598;53.802;-1.632;2023-02-18T04:50:26;100383.27;;;7.04;100.00
48888;BME280;42598;53.802;-1.632;2023-02-18T04:52:53;100366.89;;;7.40;100.00
48888;BME280;42598;53.802;-1.632;2023-02-18T04:55:20;100374.24;;;7.41;100.00
48888;BME280;42598;53.802;-1.632;2023-02-18T04:57:48;100372.97;;;7.48;100.00
48888;BME280;42598;53.802;-1.632;2023-02-18T05:00:18;100373.07;;;7.07;100.00
48888;BME280;42598;53.802;-1.632;2023-02-18T05:02:46;100350.27;;;7.30;100.00
48888;BME280;42598;53.802;-1.632;2023-02-18T05:05:14;100346.30;;;7.40;100.00
48888;BME280;42598;53.802;-1.632;2023-02-18T05:07:41;100372.77;;;7.55;100.00
48888;BME280;42598;53.802;-1.632;2023-02-18T05:10:10;100367.48;;;7.92;100.00
48888;BME280;42598;53.802;-1.632;2023-02-18T05:12:37;100392.61;;;7.19;100.00
48888;BME280;42598;53.802;-1.632;2023-02-18T05:15:05;100368.83;;;7.52;100.00
48888;BME280;42598;53.802;-1.632;2023-02-18T05:17:32;100371.40;;;7.30;100.00
48888;BME280;42598;53.802;-1.632;2023-02-18T05:19:59;100368.42;;;7.63;100.00
48888;BME280;42598;53.802;-1.632;2023-02-18T05:22:26;100368.44;;;7.71;100.00
48888;BME280;42598;53.802;-1.632;2023-02-18T05:24:53;100371.62;;;7.79;100.00
48888;BME280;42598;53.802;-1.632;2023-02-18T05:27:20;100368.41;;;7.50;100.00
48888;BME280;42598;53.802;-1.632;2023-02-18T05:29:48;100386.47;;;7.36;100.00
48888;BME280;42598;53.802;-1.632;2023-02-18T05:32:14;100374.12;;;7.20;100.00
48888;BME280;42598;53.802;-1.632;2023-02-18T05:34:42;100366.47;;;7.62;100.00
48888;BME280;42598;53.802;-1.632;2023-02-18T05:37:09;100387.96;;;7.63;100.00
48888;BME280;42598;53.802;-1.632;2023-02-18T05:39:36;100374.43;;;7.81;100.00
48888;BME280;42598;53.802;-1.632;2023-02-18T05:42:03;100386.97;;;7.71;100.00
48888;BME280;42598;53.802;-1.632;2023-02-18T05:44:31;100385.19;;;7.93;100.00
48888;BME280;42598;53.802;-1.632;2023-02-18T05:46:59;100394.52;;;8.09;100.00
48888;BME280;42598;53.802;-1.632;2023-02-18T05:49:26;100388.99;;;7.57;100.00
48888;BME280;42598;53.802;-1.632;2023-02-18T05:51:54;100384.38;;;7.57;100.00
48888;BME280;42598;53.802;-1.632;2023-02-18T05:54:21;100382.13;;;7.47;100.00
48888;BME280;42598;53.802;-1.632;2023-02-18T05:56:49;100394.88;;;7.49;100.00
48888;BME280;42598;53.802;-1.632;2023-02-18T05:59:17;100409.67;;;7.14;100.00
48888;BME280;42598;53.802;-1.632;2023-02-18T06:01:44;100412.07;;;7.32;100.00
48888;BME280;42598;53.802;-1.632;2023-02-18T06:04:13;100419.80;;;7.50;100.00
48888;BME280;42598;53.802;-1.632;2023-02-18T06:06:41;100431.37;;;7.29;100.00
48888;BME280;42598;53.802;-1.632;2023-02-18T06:09:08;100424.63;;;7.55;100.00
48888;BME280;42598;53.802;-1.632;2023-02-18T06:11:36;100432.88;;;6.98;100.00
48888;BME280;42598;53.802;-1.632;2023-02-18T06:14:04;100439.51;;;7.14;100.00
48888;BME280;42598;53.802;-1.632;2023-02-18T06:16:31;100446.78;;;7.16;100.00
48888;BME280;42598;53.802;-1.632;2023-02-18T06:18:59;100445.90;;;7.38;100.00
48888;BME280;42598;53.802;-1.632;2023-02-18T06:21:26;100445.09;;;7.52;100.00
48888;BME280;42598;53.802;-1.632;2023-02-18T06:23:53;100441.82;;;7.12;100.00
48888;BME280;42598;53.802;-1.632;2023-02-18T06:26:20;100442.98;;;7.36;100.00
48888;BME280;42598;53.802;-1.632;2023-02-18T06:28:47;100442.34;;;7.20;100.00
48888;BME280;42598;53.802;-1.632;2023-02-18T06:31:15;100434.91;;;6.95;100.00
48888;BME280;42598;53.802;-1.632;2023-02-18T06:33:41;100438.95;;;6.66;100.00
48888;BME280;42598;53.802;-1.632;2023-02-18T06:36:10;100427.14;;;6.84;100.00
48888;BME280;42598;53.802;-1.632;2023-02-18T06:38:39;100438.61;;;6.95;100.00
48888;BME280;42598;53.802;-1.632;2023-02-18T06:41:07;100420.09;;;7.21;100.00
48888;BME280;42598;53.802;-1.632;2023-02-18T06:43:34;100430.94;;;7.17;100.00
48888;BME280;42598;53.802;-1.632;2023-02-18T06:46:03;100434.30;;;7.14;100.00
48888;BME280;42598;53.802;-1.632;2023-02-18T06:48:30;100433.37;;;6.89;100.00
48888;BME280;42598;53.802;-1.632;2023-02-18T06:50:58;100428.22;;;6.62;100.00
48888;BME280;42598;53.802;-1.632;2023-02-18T06:53:25;100424.93;;;6.77;100.00
48888;BME280;42598;53.802;-1.632;2023-02-18T06:55:53;100442.91;;;6.45;100.00
48888;BME280;42598;53.802;-1.632;2023-02-18T06:58:20;100441.60;;;6.79;100.00
48888;BME280;42598;53.802;-1.632;2023-02-18T07:00:47;100449.36;;;7.13;100.00
48888;BME280;42598;53.802;-1.632;2023-02-18T07:03:14;100444.66;;;7.35;100.00
48888;BME280;42598;53.802;-1.632;2023-02-18T07:05:41;100439.51;;;6.96;100.00
48888;BME280;42598;53.802;-1.632;2023-02-18T07:08:09;100455.86;;;6.57;100.00
48888;BME280;42598;53.802;-1.632;2023-02-18T07:10:37;100454.21;;;6.62;100.00
48888;BME280;42598;53.802;-1.632;2023-02-18T07:13:04;100466.32;;;6.24;100.00
48888;BME280;42598;53.802;-1.632;2023-02-18T07:15:32;100475.49;;;6.58;100.00
48888;BME280;42598;53.802;-1.632;2023-02-18T07:17:59;100470.25;;;6.67;100.00
48888;BME280;42598;53.802;-1.632;2023-02-18T07:20:27;100474.39;;;6.69;100.00
48888;BME280;42598;53.802;-1.632;2023-02-18T07:22:54;100475.34;;;6.66;100.00
48888;BME280;42598;53.802;-1.632;2023-02-18T07:25:21;100468.71;;;6.60;100.00
48888;BME280;42598;53.802;-1.632;2023-02-18T07:27:49;100458.80;;;6.75;100.00
48888;BME280;42598;53.802;-1.632;2023-02-18T07:30:17;100472.72;;;6.22;100.00
48888;BME280;42598;53.802;-1.632;2023-02-18T07:32:44;100462.70;;;6.52;100.00
48888;BME280;42598;53.802;-1.632;2023-02-18T07:35:13;100458.15;;;6.93;100.00
48888;BME280;42598;53.802;-1.632;2023-02-18T07:37:43;100453.64;;;6.53;100.00
48888;BME280;42598;53.802;-1.632;2023-02-18T07:40:13;100444.37;;;6.30;100.00
48888;BME280;42598;53.802;-1.632;2023-02-18T07:42:40;100448.61;;;6.59;100.00
48888;BME280;42598;53.802;-1.632;2023-02-18T07:45:08;100465.31;;;6.41;100.00
48888;BME280;42598;53.802;-1.632;2023-02-18T07:47:35;100461.72;;;6.37;100.00
48888;BME280;42598;53.802;-1.632;2023-02-18T07:50:03;100448.13;;;6.38;100.00
48888;BME280;42598;53.802;-1.632;2023-02-18T07:52:31;100444.73;;;6.79;100.00
48888;BME280;42598;53.802;-1.632;2023-02-18T07:54:57;100457.87;;;6.43;100.00
48888;BME280;42598;53.802;-1.632;2023-02-18T07:57:25;100451.97;;;6.17;100.00
48888;BME280;42598;53.802;-1.632;2023-02-18T07:59:52;100457.85;;;6.38;100.00
48888;BME280;42598;53.802;-1.632;2023-02-18T08:02:21;100450.97;;;6.77;100.00
48888;BME280;42598;53.802;-1.632;2023-02-18T08:04:49;100445.82;;;6.23;100.00
48888;BME280;42598;53.802;-1.632;2023-02-18T08:07:17;100435.32;;;6.59;100.00
48888;BME280;42598;53.802;-1.632;2023-02-18T08:09:47;100436.65;;;6.76;100.00
48888;BME280;42598;53.802;-1.632;2023-02-18T08:12:14;100446.75;;;6.33;100.00
48888;BME280;42598;53.802;-1.632;2023-02-18T08:14:41;100433.16;;;6.87;100.00
48888;BME280;42598;53.802;-1.632;2023-02-18T08:17:08;100438.33;;;6.59;100.00
48888;BME280;42598;53.802;-1.632;2023-02-18T08:19:35;100445.60;;;6.43;100.00
48888;BME280;42598;53.802;-1.632;2023-02-18T08:22:03;100443.09;;;6.65;100.00
48888;BME280;42598;53.802;-1.632;2023-02-18T08:24:30;100459.10;;;6.90;100.00
48888;BME280;42598;53.802;-1.632;2023-02-18T08:26:56;100465.70;;;6.42;100.00
48888;BME280;42598;53.802;-1.632;2023-02-18T08:29:23;100464.89;;;6.45;100.00
48888;BME280;42598;53.802;-1.632;2023-02-18T08:31:50;100461.38;;;6.53;100.00
48888;BME280;42598;53.802;-1.632;2023-02-18T08:34:17;100480.19;;;6.90;100.00
48888;BME280;42598;53.802;-1.632;2023-02-18T08:36:44;100493.20;;;6.72;100.00
48888;BME280;42598;53.802;-1.632;2023-02-18T08:39:11;100496.11;;;7.01;100.00
48888;BME280;42598;53.802;-1.632;2023-02-18T08:41:37;100482.20;;;7.16;100.00
48888;BME280;42598;53.802;-1.632;2023-02-18T08:44:04;100512.85;;;6.62;100.00
48888;BME280;42598;53.802;-1.632;2023-02-18T08:46:32;100504.96;;;6.76;100.00
48888;BME280;42598;53.802;-1.632;2023-02-18T08:48:59;100502.83;;;7.05;100.00
48888;BME280;42598;53.802;-1.632;2023-02-18T08:51:25;100506.52;;;6.89;100.00
48888;BME280;42598;53.802;-1.632;2023-02-18T08:53:52;100515.26;;;7.37;100.00
48888;BME280;42598;53.802;-1.632;2023-02-18T08:56:19;100524.54;;;6.70;100.00
48888;BME280;42598;53.802;-1.632;2023-02-18T08:58:47;100534.77;;;7.49;100.00
48888;BME280;42598;53.802;-1.632;2023-02-18T09:01:14;100534.85;;;6.91;100.00
48888;BME280;42598;53.802;-1.632;2023-02-18T09:03:41;100530.40;;;7.90;100.00
48888;BME280;42598;53.802;-1.632;2023-02-18T09:06:08;100534.64;;;7.17;100.00
48888;BME280;42598;53.802;-1.632;2023-02-18T09:08:36;100538.76;;;7.25;100.00
48888;BME280;42598;53.802;-1.632;2023-02-18T09:11:04;100547.56;;;7.76;100.00
48888;BME280;42598;53.802;-1.632;2023-02-18T09:13:31;100552.64;;;7.84;100.00
48888;BME280;42598;53.802;-1.632;2023-02-18T09:16:00;100556.67;;;8.13;100.00
48888;BME280;42598;53.802;-1.632;2023-02-18T09:18:29;100554.74;;;8.31;100.00
48888;BME280;42598;53.802;-1.632;2023-02-18T09:20:58;100557.52;;;7.99;100.00
48888;BME280;42598;53.802;-1.632;2023-02-18T09:23:26;100549.38;;;8.46;100.00
48888;BME280;42598;53.802;-1.632;2023-02-18T09:25:54;100562.28;;;8.49;100.00
48888;BME280;42598;53.802;-1.632;2023-02-18T09:28:22;100557.40;;;8.77;100.00
48888;BME280;42598;53.802;-1.632;2023-02-18T09:30:49;100564.10;;;8.40;100.00
48888;BME280;42598;53.802;-1.632;2023-02-18T09:33:17;100568.44;;;8.35;100.00
48888;BME280;42598;53.802;-1.632;2023-02-18T09:35:45;100576.10;;;9.23;100.00
48888;BME280;42598;53.802;-1.632;2023-02-18T09:38:15;100578.79;;;9.06;100.00
48888;BME280;42598;53.802;-1.632;2023-02-18T09:40:44;100594.07;;;8.88;100.00
48888;BME280;42598;53.802;-1.632;2023-02-18T09:43:21;100595.14;;;8.99;100.00
48888;BME280;42598;53.802;-1.632;2023-02-18T09:45:50;100613.57;;;8.54;100.00
48888;BME280;42598;53.802;-1.632;2023-02-18T09:48:26;100617.85;;;9.53;100.00
48888;BME280;42598;53.802;-1.632;2023-02-18T09:50:54;100622.95;;;9.09;100.00
48888;BME280;42598;53.802;-1.632;2023-02-18T09:53:23;100628.49;;;8.67;100.00
48888;BME280;42598;53.802;-1.632;2023-02-18T09:55:51;100643.87;;;8.85;100.00
48888;BME280;42598;53.802;-1.632;2023-02-18T09:58:22;100640.19;;;9.76;100.00
48888;BME280;42598;53.802;-1.632;2023-02-18T10:00:55;100642.18;;;8.92;100.00
48888;BME280;42598;53.802;-1.632;2023-02-18T10:03:25;100671.34;;;8.68;100.00
48888;BME280;42598;53.802;-1.632;2023-02-18T10:05:56;100642.81;;;8.68;100.00
48888;BME280;42598;53.802;-1.632;2023-02-18T10:08:27;100654.47;;;9.74;100.00
48888;BME280;42598;53.802;-1.632;2023-02-18T10:10:55;100652.43;;;9.03;100.00
48888;BME280;42598;53.802;-1.632;2023-02-18T10:13:25;100661.11;;;9.09;100.00
48888;BME280;42598;53.802;-1.632;2023-02-18T10:15:53;100665.45;;;8.82;100.00
48888;BME280;42598;53.802;-1.632;2023-02-18T10:18:26;100658.83;;;9.07;100.00
48888;BME280;42598;53.802;-1.632;2023-02-18T10:21:00;100673.44;;;8.57;100.00
48888;BME280;42598;53.802;-1.632;2023-02-18T10:23:30;100672.79;;;9.01;100.00
48888;BME280;42598;53.802;-1.632;2023-02-18T10:26:00;100670.58;;;9.24;100.00
48888;BME280;42598;53.802;-1.632;2023-02-18T10:28:31;100676.96;;;9.26;100.00
48888;BME280;42598;53.802;-1.632;2023-02-18T10:31:01;100685.04;;;9.65;100.00
48888;BME280;42598;53.802;-1.632;2023-02-18T10:33:34;100697.85;;;8.74;100.00
48888;BME280;42598;53.802;-1.632;2023-02-18T10:36:11;100708.28;;;8.91;100.00
48888;BME280;42598;53.802;-1.632;2023-02-18T10:39:02;100709.22;;;8.94;100.00
48888;BME280;42598;53.802;-1.632;2023-02-18T10:41:36;100726.31;;;9.39;100.00
48888;BME280;42598;53.802;-1.632;2023-02-18T10:44:11;100713.72;;;9.22;100.00
48888;BME280;42598;53.802;-1.632;2023-02-18T10:46:49;100722.62;;;9.55;100.00
48888;BME280;42598;53.802;-1.632;2023-02-18T10:49:33;100731.06;;;8.48;100.00
48888;BME280;42598;53.802;-1.632;2023-02-18T10:52:08;100735.24;;;8.92;100.00
48888;BME280;42598;53.802;-1.632;2023-02-18T10:54:50;100729.14;;;9.09;100.00
48888;BME280;42598;53.802;-1.632;2023-02-18T10:57:19;100737.80;;;9.00;100.00
48888;BME280;42598;53.802;-1.632;2023-02-18T10:59:55;100743.66;;;8.96;100.00
48888;BME280;42598;53.802;-1.632;2023-02-18T11:02:27;100748.82;;;9.23;100.00
48888;BME280;42598;53.802;-1.632;2023-02-18T11:04:56;100758.97;;;8.89;100.00
48888;BME280;42598;53.802;-1.632;2023-02-18T11:07:28;100758.93;;;8.38;100.00
48888;BME280;42598;53.802;-1.632;2023-02-18T11:09:59;100762.08;;;8.49;100.00
48888;BME280;42598;53.802;-1.632;2023-02-18T11:12:43;100765.99;;;8.86;100.00
48888;BME280;42598;53.802;-1.632;2023-02-18T11:15:21;100774.46;;;8.22;100.00
48888;BME280;42598;53.802;-1.632;2023-02-18T11:17:50;100764.50;;;9.28;100.00
48888;BME280;42598;53.802;-1.632;2023-02-18T11:20:24;100759.91;;;9.09;100.00
48888;BME280;42598;53.802;-1.632;2023-02-18T11:22:51;100761.02;;;9.11;100.00
48888;BME280;42598;53.802;-1.632;2023-02-18T11:25:21;100755.63;;;9.12;100.00
48888;BME280;42598;53.802;-1.632;2023-02-18T11:27:51;100760.07;;;9.00;100.00
48888;BME280;42598;53.802;-1.632;2023-02-18T11:30:23;100758.19;;;9.23;100.00
48888;BME280;42598;53.802;-1.632;2023-02-18T11:32:54;100754.77;;;8.39;100.00
48888;BME280;42598;53.802;-1.632;2023-02-18T11:35:25;100762.31;;;8.91;100.00
48888;BME280;42598;53.802;-1.632;2023-02-18T11:37:53;100758.80;;;8.76;100.00
48888;BME280;42598;53.802;-1.632;2023-02-18T11:40:24;100755.40;;;8.76;100.00
48888;BME280;42598;53.802;-1.632;2023-02-18T11:43:02;100765.47;;;8.41;100.00
48888;BME280;42598;53.802;-1.632;2023-02-18T11:45:31;100755.26;;;8.49;100.00
48888;BME280;42598;53.802;-1.632;2023-02-18T11:48:00;100751.54;;;9.08;100.00
48888;BME280;42598;53.802;-1.632;2023-02-18T11:50:33;100763.10;;;8.87;100.00
48888;BME280;42598;53.802;-1.632;2023-02-18T11:53:25;100754.07;;;8.22;100.00
48888;BME280;42598;53.802;-1.632;2023-02-18T11:55:54;100755.11;;;8.43;100.00
48888;BME280;42598;53.802;-1.632;2023-02-18T11:58:22;100752.13;;;8.44;100.00
48888;BME280;42598;53.802;-1.632;2023-02-18T12:00:50;100746.92;;;8.46;100.00
48888;BME280;42598;53.802;-1.632;2023-02-18T12:03:30;100745.47;;;8.12;100.00
48888;BME280;42598;53.802;-1.632;2023-02-18T12:06:04;100738.82;;;8.08;100.00
48888;BME280;42598;53.802;-1.632;2023-02-18T12:08:34;100735.54;;;8.82;100.00
48888;BME280;42598;53.802;-1.632;2023-02-18T12:11:11;100737.33;;;8.62;100.00
48888;BME280;42598;53.802;-1.632;2023-02-18T12:13:47;100737.73;;;9.20;100.00
48888;BME280;42598;53.802;-1.632;2023-02-18T12:16:24;100734.95;;;9.54;100.00
48888;BME280;42598;53.802;-1.632;2023-02-18T12:19:05;100738.00;;;9.72;100.00
48888;BME280;42598;53.802;-1.632;2023-02-18T12:21:52;100739.37;;;8.92;100.00
48888;BME280;42598;53.802;-1.632;2023-02-18T12:24:34;100743.07;;;8.95;100.00
48888;BME280;42598;53.802;-1.632;2023-02-18T12:27:14;100731.88;;;9.06;100.00
48888;BME280;42598;53.802;-1.632;2023-02-18T12:29:57;100735.26;;;9.74;100.00
48888;BME280;42598;53.802;-1.632;2023-02-18T12:32:35;100734.64;;;9.85;100.00
48888;BME280;42598;53.802;-1.632;2023-02-18T12:35:17;100729.94;;;9.15;100.00
48888;BME280;42598;53.802;-1.632;2023-02-18T12:38:02;100743.55;;;9.05;100.00
48888;BME280;42598;53.802;-1.632;2023-02-18T12:40:45;100739.39;;;9.06;100.00
48888;BME280;42598;53.802;-1.632;2023-02-18T12:43:26;100745.62;;;8.68;100.00
48888;BME280;42598;53.802;-1.632;2023-02-18T12:46:20;100736.60;;;8.99;100.00
48888;BME280;42598;53.802;-1.632;2023-02-18T12:49:01;100732.02;;;8.57;100.00
48888;BME280;42598;53.802;-1.632;2023-02-18T12:51:40;100738.51;;;8.47;100.00
48888;BME280;42598;53.802;-1.632;2023-02-18T12:54:26;100736.31;;;8.71;100.00
48888;BME280;42598;53.802;-1.632;2023-02-18T12:57:11;100724.81;;;9.16;100.00